createdAt,value
2024-03-12T00:01:24.262Z,29.03
2024-03-12T00:03:56.674Z,30.73
2024-03-12T00:06:27.387Z,31.13
2024-03-12T00:08:57.335Z,31.10
2024-03-12T00:11:28.356Z,30.60
2024-03-12T00:13:58.493Z,29.83
2024-03-12T00:16:30.456Z,28.00
2024-03-12T00:19:02.224Z,28.03
2024-03-12T00:21:32.039Z,29.43
2024-03-12T00:24:01.734Z,27.47
2024-03-12T00:26:34.298Z,28.53
2024-03-12T00:29:04.116Z,28.63
2024-03-12T00:31:34.237Z,28.00
2024-03-12T00:34:04.054Z,27.03
2024-03-12T00:36:34.008Z,27.67
2024-03-12T00:39:04.533Z,27.37
2024-03-12T00:41:36.972Z,26.57
2024-03-12T00:44:07.556Z,26.57
2024-03-12T00:46:37.740Z,25.37
2024-03-12T00:49:08.590Z,25.03
2024-03-12T00:51:38.615Z,23.07
2024-03-12T00:54:08.786Z,24.13
2024-03-12T00:56:40.136Z,25.83
2024-03-12T00:59:09.845Z,24.37
2024-03-12T01:01:39.666Z,24.70
2024-03-12T01:04:10.833Z,25.23
2024-03-12T01:06:40.743Z,23.43
2024-03-12T01:09:10.338Z,22.83
2024-03-12T01:11:42.708Z,23.37
2024-03-12T01:14:14.184Z,22.83
2024-03-12T01:16:44.056Z,22.13
2024-03-12T01:19:14.076Z,22.50
2024-03-12T01:21:43.725Z,22.17
2024-03-12T01:24:14.366Z,20.80
2024-03-12T01:26:45.967Z,22.47
2024-03-12T01:29:15.787Z,21.63
2024-03-12T01:31:45.796Z,21.27
2024-03-12T01:34:17.755Z,21.87
2024-03-12T01:36:48.866Z,20.97
2024-03-12T01:39:26.671Z,22.20
2024-03-12T01:41:58.467Z,21.03
2024-03-12T01:44:28.475Z,19.67
2024-03-12T01:46:58.202Z,20.70
2024-03-12T01:49:27.999Z,20.53
2024-03-12T01:51:57.892Z,20.80
2024-03-12T01:54:27.549Z,20.03
2024-03-12T01:56:58.979Z,19.87
2024-03-12T01:59:28.780Z,20.13
2024-03-12T02:02:02.684Z,20.20
2024-03-12T02:04:32.499Z,20.53
2024-03-12T02:07:02.278Z,18.90
2024-03-12T02:09:32.277Z,20.20
2024-03-12T02:12:03.677Z,20.43
2024-03-12T02:14:33.589Z,19.57
2024-03-12T02:17:06.918Z,19.90
2024-03-12T02:19:36.799Z,20.10
2024-03-12T02:22:06.812Z,20.10
2024-03-12T02:24:38.174Z,21.47
2024-03-12T02:27:08.381Z,20.80
2024-03-12T02:29:38.092Z,20.33
2024-03-12T02:32:08.726Z,20.87
2024-03-12T02:34:38.964Z,21.13
2024-03-12T02:37:09.200Z,23.20
2024-03-12T02:39:41.171Z,23.13
2024-03-12T02:42:11.358Z,22.77
2024-03-12T02:44:41.060Z,22.07
2024-03-12T02:47:11.070Z,22.63
2024-03-12T02:49:41.299Z,21.73
2024-03-12T02:52:13.001Z,23.37
2024-03-12T02:54:44.634Z,23.37
2024-03-12T02:57:14.841Z,24.40
2024-03-12T02:59:45.279Z,24.30
2024-03-12T03:02:15.580Z,24.87
2024-03-12T03:04:45.899Z,26.27
2024-03-12T03:07:18.499Z,27.13
2024-03-12T03:09:50.058Z,24.97
2024-03-12T03:12:20.061Z,26.50
2024-03-12T03:14:49.752Z,25.43
2024-03-12T03:17:19.368Z,24.13
2024-03-12T03:19:50.412Z,25.20
2024-03-12T03:22:21.153Z,23.97
2024-03-12T03:24:53.023Z,22.87
2024-03-12T03:27:23.030Z,23.67
2024-03-12T03:29:53.027Z,22.97
2024-03-12T03:32:25.206Z,22.77
2024-03-12T03:34:55.635Z,23.50
2024-03-12T03:37:28.413Z,24.77
2024-03-12T03:39:59.366Z,29.17
2024-03-12T03:42:29.494Z,28.33
2024-03-12T03:44:59.279Z,30.53
2024-03-12T03:47:35.872Z,31.73
2024-03-12T03:50:07.002Z,32.13
2024-03-12T03:52:38.551Z,33.23
2024-03-12T03:55:11.105Z,33.13
2024-03-12T03:57:41.355Z,37.60
2024-03-12T04:00:24.900Z,36.57
2024-03-12T04:02:54.896Z,35.73
2024-03-12T04:05:25.106Z,34.00
2024-03-12T04:07:55.877Z,32.57
2024-03-12T04:10:27.145Z,32.57
2024-03-12T04:12:57.786Z,33.33
2024-03-12T04:15:31.747Z,32.23
2024-03-12T04:18:02.133Z,32.43
2024-03-12T04:20:32.679Z,32.67
2024-03-12T04:23:03.327Z,31.53
2024-03-12T04:25:34.868Z,30.53
2024-03-12T04:28:04.702Z,31.80
2024-03-12T04:30:36.965Z,30.57
2024-03-12T04:33:07.841Z,31.00
2024-03-12T04:35:37.806Z,32.57
2024-03-12T04:38:09.730Z,31.83
2024-03-12T04:40:41.526Z,34.50
2024-03-12T04:43:11.524Z,35.67
2024-03-12T04:45:42.616Z,34.63
2024-03-12T04:48:13.353Z,32.00
2024-03-12T04:50:43.226Z,34.73
2024-03-12T04:53:13.039Z,32.80
2024-03-12T04:55:46.230Z,29.30
2024-03-12T04:58:16.171Z,29.93
2024-03-12T05:00:46.021Z,30.17
2024-03-12T05:03:16.009Z,29.37
2024-03-12T05:05:45.793Z,29.70
2024-03-12T05:08:15.592Z,28.13
2024-03-12T05:10:46.888Z,27.27
2024-03-12T05:13:16.783Z,31.13
2024-03-12T05:15:46.798Z,30.53
2024-03-12T05:18:16.483Z,29.37
2024-03-12T05:20:46.512Z,29.83
2024-03-12T05:23:16.820Z,28.57
2024-03-12T05:25:48.273Z,30.43
2024-03-12T05:28:21.078Z,29.30
2024-03-12T05:30:51.635Z,28.90
2024-03-12T05:33:29.731Z,30.43
2024-03-12T05:35:59.603Z,28.97
2024-03-12T05:38:46.408Z,31.07
2024-03-12T05:41:27.327Z,31.03
2024-03-12T05:44:16.748Z,30.27
2024-03-12T05:47:05.925Z,28.90
2024-03-12T05:49:35.934Z,28.77
2024-03-12T05:52:06.129Z,29.27
2024-03-12T05:54:35.953Z,29.47
2024-03-12T05:57:07.731Z,28.17
2024-03-12T05:59:37.436Z,26.97
2024-03-12T06:02:07.417Z,28.87
2024-03-12T06:04:37.159Z,27.37
2024-03-12T06:07:07.382Z,29.03
2024-03-12T06:09:37.107Z,27.93
2024-03-12T06:12:08.648Z,29.13
2024-03-12T06:14:38.951Z,29.07
2024-03-12T06:17:09.110Z,28.70
2024-03-12T06:19:38.929Z,29.60
2024-03-12T06:22:10.097Z,28.70
2024-03-12T06:24:41.224Z,29.00
2024-03-12T06:27:12.945Z,27.77
2024-03-12T06:29:43.779Z,29.67
2024-03-12T06:32:13.396Z,29.97
2024-03-12T06:34:47.349Z,30.50
2024-03-12T06:37:20.596Z,31.43
2024-03-12T06:39:54.517Z,29.10
2024-03-12T06:42:31.331Z,28.73
2024-03-12T06:45:02.151Z,30.00
2024-03-12T06:47:38.584Z,29.97
2024-03-12T06:50:10.646Z,30.87
2024-03-12T06:52:40.347Z,26.90
2024-03-12T06:55:17.128Z,26.40
2024-03-12T06:57:54.124Z,24.70
2024-03-12T07:00:34.710Z,23.53
2024-03-12T07:03:06.350Z,19.40
2024-03-12T07:05:37.969Z,16.57
2024-03-12T07:08:08.966Z,15.63
2024-03-12T07:10:42.483Z,15.03
2024-03-12T07:13:14.435Z,13.47
2024-03-12T07:15:46.461Z,13.57
2024-03-12T07:18:17.609Z,14.43
2024-03-12T07:20:48.199Z,14.80
2024-03-12T07:23:19.347Z,16.53
2024-03-12T07:25:49.170Z,17.53
2024-03-12T07:28:24.352Z,20.73
2024-03-12T07:30:55.975Z,21.47
2024-03-12T07:33:26.198Z,16.77
2024-03-12T07:36:00.613Z,16.87
2024-03-12T07:38:30.611Z,15.57
2024-03-12T07:41:00.217Z,16.60
2024-03-12T07:43:31.714Z,16.87
2024-03-12T07:46:02.135Z,16.60
2024-03-12T07:48:32.474Z,16.37
2024-03-12T07:51:03.395Z,19.73
2024-03-12T07:53:41.482Z,18.60
2024-03-12T07:56:13.228Z,18.30
2024-03-12T07:58:47.977Z,19.53
2024-03-12T08:05:35.132Z,23.03
2024-03-12T08:08:08.176Z,21.67
2024-03-12T08:10:39.840Z,22.33
2024-03-12T08:13:10.441Z,21.37
2024-03-12T08:15:42.368Z,20.47
2024-03-12T08:18:17.705Z,19.60
2024-03-12T08:20:51.674Z,20.33
2024-03-12T08:23:22.417Z,21.53
2024-03-12T08:25:56.627Z,22.27
2024-03-12T08:28:32.635Z,22.97
2024-03-12T08:31:11.029Z,22.87
2024-03-12T08:33:45.648Z,23.73
2024-03-12T08:36:17.106Z,26.13
2024-03-12T08:38:47.802Z,27.03
2024-03-12T08:41:18.009Z,28.83
2024-03-12T08:43:48.024Z,30.30
2024-03-12T08:46:20.743Z,30.47
2024-03-12T08:48:50.783Z,32.03
2024-03-12T08:51:20.625Z,29.90
2024-03-12T08:53:50.462Z,30.87
2024-03-12T08:56:21.197Z,31.47
2024-03-12T08:58:51.521Z,28.87
2024-03-12T09:01:23.058Z,26.93
2024-03-12T09:03:54.434Z,26.83
2024-03-12T09:06:24.870Z,24.83
2024-03-12T09:08:55.278Z,25.37
2024-03-12T09:11:25.029Z,25.50
2024-03-12T09:13:56.364Z,24.30
2024-03-12T09:16:28.633Z,23.87
2024-03-12T09:18:58.425Z,24.27
2024-03-12T09:21:29.668Z,24.40
2024-03-12T09:24:02.263Z,24.77
2024-03-12T09:26:33.594Z,24.13
2024-03-12T09:29:03.611Z,23.03
2024-03-12T09:31:36.112Z,20.53
2024-03-12T09:34:06.482Z,25.17
2024-03-12T09:36:36.405Z,25.83
2024-03-12T09:39:12.598Z,25.03
2024-03-12T09:41:55.998Z,24.37
2024-03-12T09:44:27.560Z,22.97
2024-03-12T09:47:00.329Z,21.83
2024-03-12T09:49:31.412Z,22.40
2024-03-12T09:52:01.329Z,23.20
2024-03-12T09:54:31.968Z,23.42
2024-03-12T09:57:03.987Z,21.77
2024-03-12T09:59:34.746Z,22.20
2024-03-12T10:02:07.299Z,21.83
2024-03-12T10:04:37.560Z,23.85
2024-03-12T10:07:07.610Z,23.83
2024-03-12T10:09:45.904Z,20.92
2024-03-12T10:16:30.678Z,21.63
2024-03-12T10:19:13.310Z,20.20
2024-03-12T10:21:43.588Z,20.52
2024-03-12T10:24:19.147Z,20.08
2024-03-12T10:26:49.837Z,22.08
2024-03-12T10:29:21.217Z,20.45
2024-03-12T10:31:52.547Z,19.80
2024-03-12T10:34:25.133Z,20.17
2024-03-12T10:36:54.910Z,19.45
2024-03-12T10:39:34.386Z,19.50
2024-03-12T10:42:05.604Z,19.80
2024-03-12T10:44:38.409Z,18.67
2024-03-12T10:47:09.026Z,18.90
2024-03-12T10:49:41.090Z,19.27
2024-03-12T10:52:11.890Z,19.95
2024-03-12T10:54:42.454Z,19.70
2024-03-12T10:57:15.660Z,18.27
2024-03-12T10:59:46.589Z,19.92
2024-03-12T11:02:16.640Z,19.98
2024-03-12T11:04:50.008Z,19.10
2024-03-12T11:07:22.982Z,18.70
2024-03-12T11:09:55.847Z,18.10
2024-03-12T11:12:26.953Z,18.88
2024-03-12T11:14:57.950Z,17.65
2024-03-12T11:17:29.232Z,17.67
2024-03-12T11:20:03.747Z,17.98
2024-03-12T11:22:34.040Z,17.15
2024-03-12T11:25:06.246Z,17.38
2024-03-12T11:27:38.419Z,17.40
2024-03-12T11:30:16.185Z,15.82
2024-03-12T11:32:50.371Z,16.27
2024-03-12T11:35:36.294Z,17.30
2024-03-12T11:38:12.058Z,17.25
2024-03-12T11:40:52.851Z,18.20
2024-03-12T11:43:42.697Z,18.95
2024-03-12T11:46:13.973Z,17.63
2024-03-12T11:48:47.040Z,17.48
2024-03-12T11:51:20.209Z,18.67
2024-03-12T11:53:50.954Z,19.80
2024-03-12T11:56:23.405Z,19.10
2024-03-12T11:59:00.095Z,18.65
2024-03-12T12:01:36.337Z,19.15
2024-03-12T12:04:09.224Z,18.83
2024-03-12T12:06:41.330Z,18.30
2024-03-12T12:09:12.567Z,20.77
2024-03-12T12:11:42.886Z,18.05
2024-03-12T12:14:13.415Z,19.10
2024-03-12T12:16:44.138Z,19.50
2024-03-12T12:19:21.669Z,18.83
2024-03-12T12:21:58.409Z,20.50
2024-03-12T12:24:28.362Z,19.55
2024-03-12T12:27:00.907Z,20.23
2024-03-12T12:29:35.412Z,20.48
2024-03-12T12:32:05.731Z,18.17
2024-03-12T12:34:37.894Z,20.02
2024-03-12T12:37:13.734Z,18.08
2024-03-12T12:42:17.472Z,17.30
2024-03-12T12:44:51.849Z,17.35
2024-03-12T12:47:24.066Z,16.75
2024-03-12T12:49:57.049Z,18.20
2024-03-12T12:52:29.378Z,16.42
2024-03-12T12:55:03.166Z,15.88
2024-03-12T12:57:36.517Z,15.52
2024-03-12T13:00:16.919Z,15.20
2024-03-12T13:02:48.096Z,14.43
2024-03-12T13:05:22.647Z,15.98
2024-03-12T13:07:54.716Z,14.55
2024-03-12T13:10:28.533Z,15.15
2024-03-12T13:12:58.465Z,15.63
2024-03-12T13:15:29.770Z,15.48
2024-03-12T13:18:00.132Z,17.85
2024-03-12T13:20:29.810Z,16.85
2024-03-12T13:23:00.949Z,18.25
2024-03-12T13:25:30.927Z,17.38
2024-03-12T13:28:01.047Z,16.92
2024-03-12T13:30:30.980Z,16.55
2024-03-12T13:33:00.843Z,16.48
2024-03-12T13:35:30.831Z,16.60
2024-03-12T13:38:02.104Z,16.27
2024-03-12T13:40:32.099Z,16.48
2024-03-12T13:43:02.189Z,16.63
2024-03-12T13:45:32.167Z,16.05
2024-03-12T13:48:02.171Z,16.42
2024-03-12T13:50:31.856Z,16.13
2024-03-12T13:53:03.920Z,15.52
2024-03-12T13:55:36.584Z,13.00
2024-03-12T13:58:09.081Z,13.48
2024-03-12T14:00:41.433Z,11.10
2024-03-12T14:03:13.004Z,11.30
2024-03-12T14:05:47.713Z,10.18
2024-03-12T14:08:20.210Z,9.65
2024-03-12T14:10:51.409Z,10.43
2024-03-12T14:13:23.210Z,10.38
2024-03-12T14:16:06.257Z,11.23
2024-03-12T14:18:39.399Z,10.70
2024-03-12T14:21:09.542Z,10.77
2024-03-12T14:23:41.414Z,10.27
2024-03-12T14:26:12.724Z,11.27
2024-03-12T14:28:47.203Z,11.52
2024-03-12T14:31:17.990Z,11.75
2024-03-12T14:33:49.892Z,13.10
2024-03-12T14:36:24.888Z,13.35
2024-03-12T14:38:59.625Z,13.35
2024-03-12T14:41:31.897Z,14.55
2024-03-12T14:44:02.217Z,15.18
2024-03-12T14:46:33.068Z,14.13
2024-03-12T14:49:03.064Z,14.18
2024-03-12T14:51:34.745Z,14.57
2024-03-12T14:54:06.472Z,14.98
2024-03-12T14:56:39.672Z,14.18
2024-03-12T14:59:10.819Z,17.05
2024-03-12T15:01:43.625Z,15.27
2024-03-12T15:04:14.549Z,15.65
2024-03-12T15:06:44.887Z,16.10
2024-03-12T15:09:16.312Z,16.77
2024-03-12T15:11:48.670Z,16.40
2024-03-12T15:14:19.094Z,14.90
2024-03-12T15:16:49.007Z,15.48
2024-03-12T15:19:20.753Z,16.85
2024-03-12T15:21:54.120Z,15.98
2024-03-12T15:24:27.063Z,14.82
2024-03-12T15:26:59.146Z,16.73
2024-03-12T15:29:31.186Z,14.30
2024-03-12T15:32:01.700Z,14.32
2024-03-12T15:34:31.519Z,13.82
2024-03-12T15:37:04.171Z,14.40
2024-03-12T15:39:36.507Z,14.27
2024-03-12T15:42:08.540Z,14.32
2024-03-12T15:44:40.512Z,14.35
2024-03-12T15:47:10.629Z,16.85
2024-03-12T15:49:41.852Z,15.82
2024-03-12T15:52:12.279Z,16.55
2024-03-12T15:54:45.366Z,16.50
2024-03-12T15:57:18.896Z,14.73
2024-03-12T15:59:49.925Z,13.48
2024-03-12T16:02:23.735Z,16.10
2024-03-12T16:04:58.242Z,19.48
2024-03-12T16:07:31.257Z,20.35
2024-03-12T16:10:10.044Z,20.08
2024-03-12T16:12:43.022Z,21.90
2024-03-12T16:15:21.768Z,22.92
2024-03-12T16:17:53.909Z,23.83
2024-03-12T16:20:29.002Z,24.95
2024-03-12T16:22:59.186Z,25.90
2024-03-12T16:25:39.759Z,25.67
2024-03-12T16:28:20.862Z,26.58
2024-03-12T16:30:56.810Z,25.60
2024-03-12T16:33:31.199Z,25.80
2024-03-12T16:36:01.128Z,26.25
2024-03-12T16:38:33.891Z,27.25
2024-03-12T16:41:10.303Z,26.90
2024-03-12T16:43:45.409Z,27.80
2024-03-12T16:46:23.830Z,27.35
2024-03-12T16:48:57.118Z,29.75
2024-03-12T16:51:27.933Z,28.85
2024-03-12T16:54:00.531Z,31.50
2024-03-12T16:56:34.141Z,32.50
2024-03-12T16:59:06.092Z,31.60
2024-03-12T17:01:39.484Z,30.75
2024-03-12T17:04:18.398Z,31.73
2024-03-12T17:08:49.559Z,30.48
2024-03-12T17:11:34.955Z,31.30
2024-03-12T17:14:22.948Z,32.40
2024-03-12T17:17:07.623Z,32.20
2024-03-12T17:19:41.648Z,34.67
2024-03-12T17:22:17.733Z,31.70
2024-03-12T17:24:53.465Z,31.10
2024-03-12T17:27:33.508Z,34.80
2024-03-12T17:30:04.048Z,31.90
2024-03-12T17:32:34.474Z,33.63
2024-03-12T17:35:07.745Z,45.92
2024-03-12T17:37:41.766Z,38.35
2024-03-12T17:40:19.623Z,32.13
2024-03-12T17:42:52.205Z,35.40
2024-03-12T17:45:25.334Z,35.38
2024-03-12T17:48:02.985Z,33.65
2024-03-12T17:50:33.549Z,32.42
2024-03-12T17:53:08.048Z,40.20
2024-03-12T17:55:48.331Z,48.42
2024-03-12T17:58:21.924Z,43.42
2024-03-12T18:00:53.764Z,36.25
2024-03-12T18:03:27.513Z,41.30
2024-03-12T18:06:05.090Z,48.28
2024-03-12T18:08:40.940Z,55.03
2024-03-12T18:11:14.665Z,46.95
2024-03-12T18:13:48.057Z,67.55
2024-03-12T18:16:18.451Z,54.90
2024-03-12T18:18:53.540Z,51.65
2024-03-12T18:21:25.064Z,52.00
2024-03-12T18:24:04.397Z,49.85
2024-03-12T18:26:43.109Z,46.17
2024-03-12T18:29:17.642Z,41.85
2024-03-12T18:31:50.431Z,38.55
2024-03-12T18:34:20.819Z,35.05
2024-03-12T18:36:55.358Z,32.17
2024-03-12T18:39:26.201Z,32.58
2024-03-12T18:41:59.900Z,31.40
2024-03-12T18:44:31.575Z,31.02
2024-03-12T18:47:04.536Z,29.95
2024-03-12T18:49:35.889Z,31.77
2024-03-12T18:52:10.200Z,31.03
2024-03-12T18:54:40.488Z,35.63
2024-03-12T18:57:17.492Z,33.73
2024-03-12T18:59:48.244Z,32.67
2024-03-12T19:02:26.050Z,32.40
2024-03-12T19:05:00.887Z,35.30
2024-03-12T19:07:31.809Z,35.92
2024-03-12T19:10:01.822Z,33.03
2024-03-12T19:12:36.069Z,33.63
2024-03-12T19:15:09.456Z,31.13
2024-03-12T19:17:45.619Z,33.50
2024-03-12T19:20:17.469Z,33.40
2024-03-12T19:22:51.167Z,32.73
2024-03-12T19:25:27.609Z,34.00
2024-03-12T19:28:04.940Z,33.77
2024-03-12T19:30:38.716Z,34.00
2024-03-12T19:33:13.402Z,34.90
2024-03-12T19:35:52.004Z,37.77
2024-03-12T19:38:27.109Z,35.20
2024-03-12T19:40:59.489Z,37.13
2024-03-12T19:43:38.251Z,35.97
2024-03-12T19:46:17.817Z,37.07
2024-03-12T19:48:52.940Z,38.05
2024-03-12T19:51:23.810Z,34.97
2024-03-12T19:54:10.397Z,35.43
2024-03-12T19:56:42.731Z,37.37
2024-03-12T19:59:21.447Z,59.30
2024-03-12T20:01:54.168Z,43.60
2024-03-12T20:04:29.837Z,38.80
2024-03-12T20:07:03.172Z,44.80
2024-03-12T20:09:41.252Z,64.87
2024-03-12T20:12:21.291Z,52.37
2024-03-12T20:14:53.669Z,48.00
2024-03-12T20:17:27.887Z,43.03
2024-03-12T20:20:17.760Z,39.90
2024-03-12T20:23:16.451Z,39.30
2024-03-12T20:25:50.773Z,38.57
2024-03-12T20:28:29.513Z,44.57
2024-03-12T20:31:09.974Z,44.27
2024-03-12T20:33:40.332Z,41.63
2024-03-12T20:36:15.719Z,38.70
2024-03-12T20:38:48.504Z,35.47
2024-03-12T20:41:22.035Z,35.37
2024-03-12T20:44:08.599Z,37.47
2024-03-12T20:46:45.374Z,36.87
2024-03-12T20:49:17.757Z,39.53
2024-03-12T20:51:53.431Z,36.43
2024-03-12T20:54:24.961Z,34.93
2024-03-12T20:56:57.440Z,35.13
2024-03-12T20:59:35.643Z,36.80
2024-03-12T21:02:16.258Z,38.53
2024-03-12T21:04:47.752Z,40.07
2024-03-12T21:07:20.682Z,39.07
2024-03-12T21:10:01.242Z,36.73
2024-03-12T21:12:33.360Z,33.87
2024-03-12T21:18:01.784Z,34.97
2024-03-12T21:20:34.289Z,36.37
2024-03-12T21:23:05.831Z,35.10
2024-03-12T21:25:36.120Z,35.17
2024-03-12T21:28:07.542Z,34.63
2024-03-12T21:30:41.419Z,34.47
2024-03-12T21:33:17.405Z,32.90
2024-03-12T21:35:47.380Z,35.13
2024-03-12T21:38:17.276Z,33.83
2024-03-12T21:40:47.797Z,35.47
2024-03-12T21:43:18.038Z,35.53
2024-03-12T21:45:48.647Z,34.30
2024-03-12T21:48:22.197Z,33.63
2024-03-12T21:50:52.557Z,36.67
2024-03-12T21:53:23.087Z,38.40
2024-03-12T21:55:53.512Z,36.80
2024-03-12T21:58:24.017Z,38.97
2024-03-12T22:00:55.556Z,38.90
2024-03-12T22:03:27.145Z,44.90
2024-03-12T22:05:57.264Z,44.53
2024-03-12T22:08:27.490Z,45.63
2024-03-12T22:10:58.734Z,49.57
2024-03-12T22:13:36.196Z,47.30
2024-03-12T22:16:08.253Z,45.83
2024-03-12T22:18:40.074Z,47.07
2024-03-12T22:21:11.494Z,46.07
2024-03-12T22:23:42.534Z,47.63
2024-03-12T22:26:15.344Z,45.10
2024-03-12T22:28:46.365Z,47.00
2024-03-12T22:31:17.651Z,46.93
2024-03-12T22:33:50.900Z,46.67
2024-03-12T22:36:21.938Z,46.30
2024-03-12T22:38:54.508Z,45.30
2024-03-12T22:41:24.529Z,44.87
2024-03-12T22:43:54.848Z,44.67
2024-03-12T22:46:24.820Z,44.83
2024-03-12T22:48:56.857Z,42.53
2024-03-12T22:51:26.849Z,42.57
2024-03-12T22:53:57.603Z,41.70
2024-03-12T22:56:28.546Z,40.53
2024-03-12T22:58:58.955Z,39.33
2024-03-12T23:01:30.264Z,39.83
2024-03-12T23:04:03.020Z,38.80
2024-03-12T23:06:33.352Z,36.13
2024-03-12T23:09:05.981Z,36.63
2024-03-12T23:11:36.132Z,37.63
2024-03-12T23:14:07.670Z,36.57
2024-03-12T23:16:37.881Z,35.83
2024-03-12T23:19:11.050Z,37.10
2024-03-12T23:21:41.097Z,34.40
2024-03-12T23:24:15.131Z,36.10
2024-03-12T23:26:45.226Z,36.40
2024-03-12T23:29:15.942Z,37.10
2024-03-12T23:31:46.460Z,55.60
2024-03-12T23:34:17.750Z,42.77
2024-03-12T23:36:47.751Z,39.47
2024-03-12T23:39:19.082Z,38.53
2024-03-12T23:41:48.790Z,37.07
2024-03-12T23:44:18.507Z,39.10
2024-03-12T23:46:48.412Z,36.37
2024-03-12T23:49:20.161Z,39.67
2024-03-12T23:51:50.829Z,39.20
2024-03-12T23:54:20.516Z,38.90
2024-03-12T23:56:52.981Z,36.77
2024-03-12T23:59:22.698Z,37.87
